createdAt,value
2023-03-02T00:00:02.468Z,0.99
2023-03-02T00:03:29.146Z,0.96
2023-03-02T00:06:34.623Z,0.93
2023-03-02T00:09:38.725Z,0.91
2023-03-02T00:12:42.570Z,0.89
2023-03-02T00:15:45.843Z,0.87
2023-03-02T00:18:49.196Z,0.87
2023-03-02T00:21:52.414Z,0.86
2023-03-02T00:24:55.628Z,0.84
2023-03-02T00:27:58.795Z,0.82
2023-03-02T00:31:05.344Z,0.81
2023-03-02T00:34:08.685Z,0.79
2023-03-02T00:37:11.885Z,0.78
2023-03-02T00:40:15.486Z,0.76
2023-03-02T00:43:18.785Z,0.76
2023-03-02T00:46:24.340Z,0.75
2023-03-02T00:49:28.271Z,0.75
2023-03-02T00:52:32.924Z,0.76
2023-03-02T00:55:37.729Z,0.76
2023-03-02T00:58:41.185Z,0.74
2023-03-02T01:01:44.633Z,0.72
2023-03-02T01:04:48.382Z,0.71
2023-03-02T01:07:51.649Z,0.70
2023-03-02T01:10:54.930Z,0.68
2023-03-02T01:13:58.172Z,0.67
2023-03-02T01:17:01.394Z,0.65
2023-03-02T01:20:06.322Z,0.64
2023-03-02T01:23:09.581Z,0.62
2023-03-02T01:26:12.918Z,0.61
2023-03-02T01:29:16.213Z,0.60
2023-03-02T01:32:19.498Z,0.58
2023-03-02T01:35:23.399Z,0.55
2023-03-02T01:38:27.253Z,0.53
2023-03-02T01:41:31.484Z,0.52
2023-03-02T01:44:47.651Z,0.52
2023-03-02T01:47:51.000Z,0.51
2023-03-02T01:50:55.507Z,0.50
2023-03-02T01:54:04.863Z,0.48
2023-03-02T01:57:09.284Z,0.47
2023-03-02T02:00:29.074Z,0.46
2023-03-02T02:03:32.476Z,0.44
2023-03-02T02:06:43.248Z,0.42
2023-03-02T02:09:49.829Z,0.41
2023-03-02T02:12:53.503Z,0.40
2023-03-02T02:15:56.760Z,0.36
2023-03-02T02:19:02.177Z,0.35
2023-03-02T02:22:05.415Z,0.32
2023-03-02T02:25:22.570Z,0.29
2023-03-02T02:28:31.859Z,0.28
2023-03-02T02:31:40.479Z,0.26
2023-03-02T02:34:49.165Z,0.24
2023-03-02T02:37:56.412Z,0.23
2023-03-02T02:41:04.374Z,0.20
2023-03-02T02:44:14.876Z,0.20
2023-03-02T02:47:21.882Z,0.20
2023-03-02T02:50:35.459Z,0.21
2023-03-02T02:53:45.187Z,0.22
2023-03-02T02:56:50.221Z,0.21
2023-03-02T03:00:01.029Z,0.20
2023-03-02T03:03:29.455Z,0.20
2023-03-02T03:06:42.444Z,0.20
2023-03-02T03:09:55.672Z,0.20
2023-03-02T03:12:59.193Z,0.21
2023-03-02T03:16:03.777Z,0.21
2023-03-02T03:19:18.401Z,0.22
2023-03-02T03:22:21.891Z,0.22
2023-03-02T03:25:27.441Z,0.22
2023-03-02T03:28:32.226Z,0.21
2023-03-02T03:31:35.867Z,0.20
2023-03-02T03:34:41.149Z,0.19
2023-03-02T03:37:56.874Z,0.17
2023-03-02T03:41:00.216Z,0.15
2023-03-02T03:44:04.707Z,0.13
2023-03-02T03:47:08.720Z,0.11
2023-03-02T03:50:12.770Z,0.09
2023-03-02T03:53:16.579Z,0.08
2023-03-02T03:56:19.835Z,0.07
2023-03-02T03:59:24.805Z,0.05
2023-03-02T04:02:31.845Z,0.04
2023-03-02T04:05:35.378Z,0.04
2023-03-02T04:08:40.062Z,0.04
2023-03-02T04:11:45.175Z,0.04
2023-03-02T04:14:48.787Z,0.03
2023-03-02T04:17:53.401Z,0.02
2023-03-02T04:20:58.161Z,0.01
2023-03-02T04:24:01.457Z,-0.01
2023-03-02T04:27:04.824Z,-0.04
2023-03-02T04:30:09.746Z,-0.05
2023-03-02T04:33:13.321Z,-0.07
2023-03-02T04:36:16.627Z,-0.09
2023-03-02T04:39:20.464Z,-0.10
2023-03-02T04:42:26.436Z,-0.13
2023-03-02T04:45:29.611Z,-0.15
2023-03-02T04:48:33.238Z,-0.16
2023-03-02T04:51:43.046Z,-0.18
2023-03-02T04:54:46.286Z,-0.19
2023-03-02T04:57:49.748Z,-0.20
2023-03-02T05:00:54.783Z,-0.23
2023-03-02T05:03:58.089Z,-0.25
2023-03-02T05:07:01.435Z,-0.26
2023-03-02T05:10:04.924Z,-0.27
2023-03-02T05:13:08.255Z,-0.27
2023-03-02T05:16:11.649Z,-0.27
2023-03-02T05:19:15.223Z,-0.27
2023-03-02T05:22:18.497Z,-0.27
2023-03-02T05:25:22.191Z,-0.27
2023-03-02T05:28:26.579Z,-0.29
2023-03-02T05:31:42.150Z,-0.29
2023-03-02T05:34:45.430Z,-0.32
2023-03-02T05:37:49.151Z,-0.33
2023-03-02T05:40:52.320Z,-0.33
2023-03-02T05:43:55.876Z,-0.34
2023-03-02T05:46:59.126Z,-0.35
2023-03-02T05:50:02.432Z,-0.35
2023-03-02T05:53:05.846Z,-0.36
2023-03-02T05:56:09.658Z,-0.37
2023-03-02T05:59:13.043Z,-0.38
2023-03-02T06:02:16.679Z,-0.38
2023-03-02T06:05:20.256Z,-0.39
2023-03-02T06:08:23.475Z,-0.38
2023-03-02T06:11:26.669Z,-0.37
2023-03-02T06:14:29.999Z,-0.35
2023-03-02T06:17:33.549Z,-0.33
2023-03-02T06:20:36.794Z,-0.31
2023-03-02T06:23:40.254Z,-0.29
2023-03-02T06:26:43.878Z,-0.25
2023-03-02T06:29:47.083Z,-0.21
2023-03-02T06:32:50.806Z,-0.17
2023-03-02T06:35:54.201Z,-0.11
2023-03-02T06:38:57.455Z,-0.04
2023-03-02T06:42:00.941Z,0.04
2023-03-02T06:45:05.040Z,0.13
2023-03-02T06:48:08.413Z,0.23
2023-03-02T06:51:12.763Z,0.36
2023-03-02T06:54:15.980Z,0.49
2023-03-02T06:57:19.254Z,0.63
2023-03-02T07:00:28.272Z,0.77
2023-03-02T07:03:31.621Z,0.92
2023-03-02T07:06:34.824Z,1.05
2023-03-02T07:09:38.056Z,1.19
2023-03-02T07:12:42.466Z,1.32
2023-03-02T07:15:45.732Z,1.44
2023-03-02T07:18:48.959Z,1.56
2023-03-02T07:21:52.163Z,1.68
2023-03-02T07:24:55.372Z,1.78
2023-03-02T07:27:59.009Z,1.91
2023-03-02T07:31:02.341Z,2.01
2023-03-02T07:34:05.611Z,2.12
2023-03-02T07:37:08.787Z,2.23
2023-03-02T07:40:12.972Z,2.35
2023-03-02T07:43:16.183Z,2.47
2023-03-02T07:46:19.450Z,2.59
2023-03-02T07:49:22.715Z,2.71
2023-03-02T07:52:25.909Z,2.83
2023-03-02T07:55:29.464Z,2.96
2023-03-02T07:58:32.818Z,3.08
2023-03-02T08:01:36.520Z,3.19
2023-03-02T08:04:40.369Z,3.30
2023-03-02T08:07:46.047Z,3.41
2023-03-02T08:10:49.564Z,3.51
2023-03-02T08:14:02.851Z,3.60
2023-03-02T08:17:07.043Z,3.70
2023-03-02T08:20:11.100Z,3.78
2023-03-02T08:26:31.926Z,3.94
2023-03-02T08:29:35.868Z,4.00
2023-03-02T08:32:40.175Z,4.05
2023-03-02T08:35:43.571Z,4.09
2023-03-02T08:38:48.281Z,4.17
2023-03-02T08:41:55.979Z,4.23
2023-03-02T08:45:00.950Z,4.31
2023-03-02T08:48:04.403Z,4.37
2023-03-02T08:51:11.865Z,4.44
2023-03-02T08:54:16.263Z,4.54
2023-03-02T08:57:59.253Z,4.65
2023-03-02T09:00:52.802Z,4.78
2023-03-02T09:03:57.766Z,4.91
2023-03-02T09:07:01.217Z,5.08
2023-03-02T09:10:04.917Z,5.27
2023-03-02T09:13:21.923Z,5.51
2023-03-02T09:16:33.251Z,5.73
2023-03-02T09:19:44.671Z,5.94
2023-03-02T09:22:50.910Z,6.15
2023-03-02T09:25:56.322Z,6.34
2023-03-02T09:28:59.712Z,6.53
2023-03-02T09:32:03.164Z,6.70
2023-03-02T09:35:07.197Z,6.88
2023-03-02T09:38:16.202Z,7.04
2023-03-02T09:41:19.820Z,7.19
2023-03-02T09:44:32.567Z,7.33
2023-03-02T09:47:47.038Z,7.45
2023-03-02T09:51:11.887Z,7.55
2023-03-02T09:54:20.685Z,7.64
2023-03-02T09:57:29.078Z,7.69
2023-03-02T10:00:36.523Z,7.75
2023-03-02T10:03:57.723Z,7.79
2023-03-02T10:07:29.348Z,7.86
2023-03-02T10:11:00.986Z,7.92
2023-03-02T10:14:12.941Z,7.96
2023-03-02T10:17:16.303Z,8.00
2023-03-02T10:20:22.926Z,8.04
2023-03-02T10:23:48.540Z,8.07
2023-03-02T10:26:55.188Z,8.11
2023-03-02T10:30:33.865Z,8.19
2023-03-02T10:33:40.659Z,8.28
2023-03-02T10:36:47.651Z,8.32
2023-03-02T10:39:52.092Z,8.37
2023-03-02T10:42:57.098Z,8.44
2023-03-02T10:46:01.917Z,8.51
2023-03-02T10:49:05.403Z,8.59
2023-03-02T10:52:15.994Z,8.69
2023-03-02T10:55:19.469Z,8.84
2023-03-02T10:58:29.648Z,8.97
2023-03-02T11:01:32.988Z,9.14
2023-03-02T11:04:36.418Z,9.33
2023-03-02T11:07:39.839Z,9.51
2023-03-02T11:11:00.507Z,9.69
2023-03-02T11:14:14.539Z,9.90
2023-03-02T11:17:32.170Z,10.07
2023-03-02T11:20:43.647Z,10.21
2023-03-02T11:24:29.190Z,10.37
2023-03-02T11:27:37.019Z,10.52
2023-03-02T11:30:47.623Z,10.66
2023-03-02T11:34:11.767Z,10.79
2023-03-02T11:37:23.592Z,10.91
2023-03-02T11:40:34.750Z,11.03
2023-03-02T11:43:38.459Z,11.12
2023-03-02T11:46:48.696Z,11.21
2023-03-02T11:49:59.207Z,11.28
2023-03-02T11:53:08.295Z,11.32
2023-03-02T11:56:12.238Z,11.37
2023-03-02T11:59:21.178Z,11.39
2023-03-02T12:02:27.063Z,11.40
2023-03-02T12:05:35.943Z,11.45
2023-03-02T12:08:42.564Z,11.48
2023-03-02T12:12:32.928Z,11.47
2023-03-02T12:15:43.104Z,11.47
2023-03-02T12:18:51.301Z,11.45
2023-03-02T12:22:05.770Z,11.45
2023-03-02T12:25:21.395Z,11.49
2023-03-02T12:28:42.319Z,11.51
2023-03-02T12:31:56.669Z,11.54
2023-03-02T12:35:09.193Z,11.62
2023-03-02T12:38:34.035Z,11.67
2023-03-02T12:42:23.499Z,11.73
2023-03-02T12:45:48.871Z,11.77
2023-03-02T12:49:33.521Z,11.83
2023-03-02T12:52:56.622Z,11.90
2023-03-02T12:56:00.835Z,11.93
2023-03-02T12:59:04.239Z,11.90
2023-03-02T13:02:24.486Z,11.83
2023-03-02T13:05:33.690Z,11.71
2023-03-02T13:08:37.341Z,11.56
2023-03-02T13:11:44.321Z,11.47
2023-03-02T13:14:56.494Z,11.38
2023-03-02T13:18:03.981Z,11.28
2023-03-02T13:21:13.494Z,11.20
2023-03-02T13:24:36.163Z,11.11
2023-03-02T13:27:39.421Z,10.98
2023-03-02T13:30:47.913Z,10.90
2023-03-02T13:33:53.728Z,10.79
2023-03-02T13:36:57.294Z,10.70
2023-03-02T13:40:30.303Z,10.61
2023-03-02T13:43:41.030Z,10.50
2023-03-02T13:46:48.287Z,10.43
2023-03-02T13:49:51.724Z,10.37
2023-03-02T13:53:06.377Z,10.30
2023-03-02T13:56:16.760Z,10.23
2023-03-02T13:59:22.268Z,10.17
2023-03-02T14:02:27.106Z,10.12
2023-03-02T14:05:33.610Z,10.08
2023-03-02T14:08:37.145Z,10.04
2023-03-02T14:11:43.930Z,9.99
2023-03-02T14:15:15.070Z,9.94
2023-03-02T14:18:36.705Z,9.90
2023-03-02T14:21:40.354Z,9.86
2023-03-02T14:24:59.705Z,9.84
2023-03-02T14:28:03.708Z,9.82
2023-03-02T14:31:10.045Z,9.81
2023-03-02T14:34:42.053Z,9.81
2023-03-02T14:37:44.742Z,9.80
2023-03-02T14:40:55.043Z,9.76
2023-03-02T14:43:58.421Z,9.72
2023-03-02T14:47:01.750Z,9.67
2023-03-02T14:50:06.196Z,9.63
2023-03-02T14:53:25.300Z,9.59
2023-03-02T14:56:29.011Z,9.54
2023-03-02T14:59:32.323Z,9.51
2023-03-02T15:02:35.820Z,9.46
2023-03-02T15:05:59.040Z,9.43
2023-03-02T15:09:29.021Z,9.38
2023-03-02T15:12:32.342Z,9.34
2023-03-02T15:15:44.801Z,9.29
2023-03-02T15:18:52.601Z,9.23
2023-03-02T15:21:57.183Z,9.18
2023-03-02T15:25:00.495Z,9.13
2023-03-02T15:28:04.107Z,9.06
2023-03-02T15:31:12.655Z,9.00
2023-03-02T15:34:16.792Z,8.93
2023-03-02T15:37:21.473Z,8.86
2023-03-02T15:40:25.695Z,8.79
2023-03-02T15:43:29.256Z,8.72
2023-03-02T15:46:32.809Z,8.64
2023-03-02T15:49:37.977Z,8.57
2023-03-02T15:52:42.064Z,8.50
2023-03-02T15:55:48.109Z,8.43
2023-03-02T15:58:51.671Z,8.35
2023-03-02T16:02:02.577Z,8.26
2023-03-02T16:05:06.211Z,8.17
2023-03-02T16:08:09.485Z,8.09
2023-03-02T16:11:18.746Z,8.01
2023-03-02T16:14:22.121Z,7.93
2023-03-02T16:17:25.359Z,7.84
2023-03-02T16:20:28.796Z,7.78
2023-03-02T16:23:32.076Z,7.71
2023-03-02T16:26:42.270Z,7.64
2023-03-02T16:29:45.577Z,7.57
2023-03-02T16:32:49.028Z,7.50
2023-03-02T16:35:52.269Z,7.44
2023-03-02T16:38:55.540Z,7.39
2023-03-02T16:41:58.781Z,7.32
2023-03-02T16:45:02.672Z,7.26
2023-03-02T16:48:06.558Z,7.19
2023-03-02T16:51:09.909Z,7.12
2023-03-02T16:54:22.291Z,7.06
2023-03-02T16:57:25.512Z,7.00
2023-03-02T17:00:31.304Z,6.96
2023-03-02T17:03:38.423Z,6.89
2023-03-02T17:06:59.752Z,6.83
2023-03-02T17:13:23.247Z,6.71
2023-03-02T17:16:26.685Z,6.67
2023-03-02T17:19:29.965Z,6.62
2023-03-02T17:22:34.010Z,6.58
2023-03-02T17:25:37.569Z,6.53
2023-03-02T17:28:40.879Z,6.49
2023-03-02T17:31:44.903Z,6.44
2023-03-02T17:34:48.214Z,6.39
2023-03-02T17:37:51.536Z,6.35
2023-03-02T17:40:54.799Z,6.29
2023-03-02T17:43:58.286Z,6.25
2023-03-02T17:47:03.962Z,6.21
2023-03-02T17:50:07.409Z,6.15
2023-03-02T17:53:10.726Z,6.11
2023-03-02T17:56:19.130Z,6.07
2023-03-02T17:59:22.395Z,6.01
2023-03-02T18:02:30.801Z,5.97
2023-03-02T18:05:34.129Z,5.93
2023-03-02T18:08:37.654Z,5.89
2023-03-02T18:11:43.941Z,5.86
2023-03-02T18:14:47.183Z,5.82
2023-03-02T18:17:50.470Z,5.78
2023-03-02T18:20:55.185Z,5.75
2023-03-02T18:23:58.565Z,5.71
2023-03-02T18:27:02.338Z,5.68
2023-03-02T18:30:06.418Z,5.65
2023-03-02T18:33:16.902Z,5.61
2023-03-02T18:36:20.423Z,5.56
2023-03-02T18:39:27.444Z,5.52
2023-03-02T18:42:39.510Z,5.47
2023-03-02T18:45:43.400Z,5.43
2023-03-02T18:48:47.754Z,5.39
2023-03-02T18:51:53.080Z,5.35
2023-03-02T18:54:59.201Z,5.30
2023-03-02T18:58:03.034Z,5.25
2023-03-02T19:01:07.395Z,5.21
2023-03-02T19:04:10.940Z,5.16
2023-03-02T19:07:14.236Z,5.12
2023-03-02T19:10:19.518Z,5.08
2023-03-02T19:13:24.653Z,5.03
2023-03-02T19:16:28.169Z,4.99
2023-03-02T19:19:31.825Z,4.95
2023-03-02T19:22:35.012Z,4.91
2023-03-02T19:25:38.795Z,4.86
2023-03-02T19:28:42.028Z,4.82
2023-03-02T19:31:45.363Z,4.77
2023-03-02T19:34:48.973Z,4.73
2023-03-02T19:37:52.348Z,4.69
2023-03-02T19:40:57.948Z,4.65
2023-03-02T19:44:02.039Z,4.61
2023-03-02T19:47:06.259Z,4.58
2023-03-02T19:50:10.140Z,4.54
2023-03-02T19:53:13.915Z,4.49
2023-03-02T19:56:20.402Z,4.46
2023-03-02T19:59:24.720Z,4.43
2023-03-02T20:02:28.549Z,4.40
2023-03-02T20:05:39.111Z,4.37
2023-03-02T20:08:42.438Z,4.34
2023-03-02T20:11:47.238Z,4.31
2023-03-02T20:14:52.857Z,4.28
2023-03-02T20:17:58.437Z,4.25
2023-03-02T20:21:01.986Z,4.20
2023-03-02T20:24:06.118Z,4.16
2023-03-02T20:27:11.619Z,4.14
2023-03-02T20:30:39.934Z,4.11
2023-03-02T20:33:49.338Z,4.10
2023-03-02T20:36:52.742Z,4.08
2023-03-02T20:39:56.473Z,4.08
2023-03-02T20:42:59.744Z,4.06
2023-03-02T20:46:03.870Z,4.05
2023-03-02T20:49:09.656Z,4.05
2023-03-02T20:52:12.922Z,4.04
2023-03-02T20:55:16.582Z,4.03
2023-03-02T20:58:19.978Z,4.02
2023-03-02T21:01:24.180Z,4.02
2023-03-02T21:04:27.535Z,4.01
2023-03-02T21:07:30.828Z,4.00
2023-03-02T21:10:36.538Z,3.99
2023-03-02T21:13:40.030Z,3.99
2023-03-02T21:16:44.907Z,3.98
2023-03-02T21:19:48.078Z,3.96
2023-03-02T21:22:51.502Z,3.94
2023-03-02T21:25:54.791Z,3.92
2023-03-02T21:28:58.124Z,3.89
2023-03-02T21:32:01.348Z,3.86
2023-03-02T21:35:05.360Z,3.84
2023-03-02T21:38:09.511Z,3.84
2023-03-02T21:41:12.773Z,3.84
2023-03-02T21:44:16.155Z,3.84
2023-03-02T21:47:23.245Z,3.84
2023-03-02T21:50:30.390Z,3.84
2023-03-02T21:53:34.348Z,3.84
2023-03-02T21:56:37.782Z,3.83
2023-03-02T21:59:41.384Z,3.83
2023-03-02T22:02:45.155Z,3.83
2023-03-02T22:05:49.947Z,3.82
2023-03-02T22:08:54.285Z,3.81
2023-03-02T22:11:58.184Z,3.80
2023-03-02T22:15:04.453Z,3.77
2023-03-02T22:18:20.177Z,3.76
2023-03-02T22:21:43.676Z,3.74
2023-03-02T22:24:50.375Z,3.71
2023-03-02T22:27:54.108Z,3.68
2023-03-02T22:31:00.450Z,3.64
2023-03-02T22:34:13.264Z,3.60
2023-03-02T22:37:25.961Z,3.57
2023-03-02T22:40:30.925Z,3.52
2023-03-02T22:43:35.656Z,3.49
2023-03-02T22:46:40.320Z,3.45
2023-03-02T22:49:43.973Z,3.41
2023-03-02T22:52:47.603Z,3.38
2023-03-02T22:55:59.995Z,3.33
2023-03-02T22:59:07.727Z,3.29
2023-03-02T23:02:18.512Z,3.27
2023-03-02T23:05:34.339Z,3.22
2023-03-02T23:08:37.662Z,3.18
2023-03-02T23:11:42.123Z,3.14
2023-03-02T23:14:50.359Z,3.11
2023-03-02T23:17:53.652Z,3.07
2023-03-02T23:20:57.698Z,3.04
2023-03-02T23:24:02.628Z,3.01
2023-03-02T23:27:06.395Z,2.98
2023-03-02T23:30:10.155Z,2.94
2023-03-02T23:33:13.584Z,2.91
2023-03-02T23:36:17.161Z,2.88
2023-03-02T23:39:20.536Z,2.87
2023-03-02T23:42:24.082Z,2.84
2023-03-02T23:45:27.483Z,2.80
2023-03-02T23:48:30.982Z,2.77
2023-03-02T23:51:34.443Z,2.75
2023-03-02T23:54:37.773Z,2.71
2023-03-02T23:57:41.514Z,2.69
